Bookmark and Share
Track history (hours):
 

Ocean Preface

Last reported at 2013-Jul-19 07:27 UTC. Time now 2014-Apr-24 22:02 UTC.
Position N 22°41' E 113°40'.
Warning: this ship's position is months out of date.

Type: Cargo ship. MMSI: 477206000.

NotesDate/timePositionNaut miles runAvg speedWind from/ knotsBaromVisibWave heightAir tempDewpointWater temp
2013-Jul-19 07:27N 22°41' E 113°40'0 0.0
2013-Jul-18 08:21N 22°41' E 113°40'14 7.7
2013-Jul-18 06:33N 22°28' E 113°45'7 7.2
2013-Jul-18 05:33N 22°21' E 113°48'7 7.1
2013-Jul-18 04:33N 22°14' E 113°48'6 5.9
2013-Jul-18 03:33N 22°08' E 113°48'6 4.7
2013-Jul-18 02:15N 22°03' E 113°52'0 0.0
2013-Jul-18 01:15N 22°03' E 113°52'0 0.0
2013-Jul-17 23:33N 22°03' E 113°52'0 0.1
2013-Jul-17 22:15N 22°03' E 113°52'0 0.0
2013-Jul-17 21:27N 22°03' E 113°52'0 0.0
2013-Jul-17 20:33N 22°03' E 113°52'0 0.0
2013-Jul-17 19:27N 22°03' E 113°52'0 0.0
2013-Jul-17 18:27N 22°03' E 113°52'0 0.0
2013-Jul-17 17:33N 22°03' E 113°52'0 0.0
2013-Jul-17 16:21N 22°03' E 113°52'0 0.0
2013-Jul-17 15:21N 22°03' E 113°52'0 0.0
2013-Jul-17 12:21N 22°03' E 113°52'0 0.0
2013-Jul-17 11:33N 22°03' E 113°52'0 0.0
2013-Jul-17 09:21N 22°03' E 113°52'0 0.0
2013-Jul-17 08:21N 22°03' E 113°52'0 0.0
2013-Jul-17 07:21N 22°03' E 113°52'0 0.0
2013-Jul-17 06:27N 22°03' E 113°52'0 0.1
2013-Jul-17 05:15N 22°03' E 113°52'0 0.0
2013-Jul-17 02:33N 22°03' E 113°52'0 0.0
2013-Jul-17 01:27N 22°03' E 113°52'0 0.0
2013-Jul-17 00:33N 22°03' E 113°52'0 0.0
2013-Jul-16 23:33N 22°03' E 113°52'0 0.0
2013-Jul-16 22:27N 22°03' E 113°52'0 0.0
2013-Jul-16 21:21N 22°03' E 113°52'0 0.1
2013-Jul-16 20:21N 22°03' E 113°52'0 0.0
2013-Jul-16 19:27N 22°03' E 113°52'0 0.0
2013-Jul-16 17:33N 22°03' E 113°52'0 0.0
2013-Jul-16 16:33N 22°03' E 113°52'0 0.0
2013-Jul-16 15:15N 22°03' E 113°52'0 0.1
2013-Jul-16 14:09N 22°03' E 113°52'0 0.1
2013-Jul-16 13:21N 22°03' E 113°52'0 0.1
2013-Jul-16 12:27N 22°03' E 113°52'0 0.0
2013-Jul-16 11:33N 22°03' E 113°52'0 0.0
2013-Jul-16 10:27N 22°03' E 113°52'0 0.1
2013-Jul-16 09:33N 22°03' E 113°52'0 0.0
2013-Jul-16 06:27N 22°03' E 113°52'0 0.0
2013-Jul-16 04:33N 22°03' E 113°52'0 0.1
2013-Jul-16 03:33N 22°03' E 113°52'0 0.1
2013-Jul-16 02:27N 22°03' E 113°52'0 0.1
2013-Jul-16 01:15N 22°03' E 113°52'0 0.0
2013-Jul-15 22:27N 22°03' E 113°52'0 0.0
2013-Jul-15 21:15N 22°03' E 113°52'0 0.1
2013-Jul-15 20:27N 22°03' E 113°52'0 0.1
2013-Jul-15 19:33N 22°03' E 113°52'0 0.0
2013-Jul-15 17:33N 22°03' E 113°52'0 0.0
2013-Jul-15 13:33N 22°03' E 113°52'0 0.1
2013-Jul-15 12:33N 22°03' E 113°52'0 0.1
2013-Jul-15 11:33N 22°03' E 113°52'0 0.0
2013-Jul-15 10:21N 22°03' E 113°52'0 0.0
2013-Jul-15 09:33N 22°03' E 113°52'0 0.1
2013-Jul-15 08:33N 22°03' E 113°52'0 0.1
2013-Jul-15 07:21N 22°03' E 113°52'0 0.1
2013-Jul-15 06:21N 22°03' E 113°52'0 0.0
2013-Jul-15 05:15N 22°03' E 113°52'0 0.2
2013-Jul-15 04:21N 22°03' E 113°52'0 0.1
2013-Jul-15 03:27N 22°04' E 113°52'0 0.0
2013-Jul-14 09:32N 22°03' E 113°52'0 0.0
2013-Jul-14 07:14N 22°03' E 113°52'0 0.0
2013-Jul-14 06:32N 22°03' E 113°52'0 0.0
2013-Jul-14 05:26N 22°03' E 113°52'0 0.0
2013-Jul-14 01:26N 22°03' E 113°52'0 0.0
2013-Jul-13 19:20N 22°03' E 113°52'0 0.0
2013-Jul-13 18:26N 22°03' E 113°52'0 0.1
2013-Jul-13 17:20N 22°03' E 113°52'0 0.0
2013-Jul-13 16:26N 22°03' E 113°52'0 0.0
2013-Jul-13 15:32N 22°03' E 113°52'0 0.0
2013-Jul-13 14:32N 22°03' E 113°52'0 0.0
2013-Jul-13 13:32N 22°03' E 113°52'0 0.1
2013-Jul-13 12:26N 22°03' E 113°52'0 0.0
2013-Jul-13 11:08N 22°03' E 113°52'0 0.0
2013-Jul-13 10:32N 22°03' E 113°52'0 0.0
2013-Jul-13 09:08N 22°03' E 113°52'0 0.0
2013-Jul-13 08:32N 22°03' E 113°52'0 0.1
2013-Jul-13 07:32N 22°03' E 113°52'0 0.0
2013-Jul-13 06:08N 22°03' E 113°52'0 0.0
2013-Jul-13 04:26N 22°03' E 113°52'0 0.0
2013-Jul-13 03:32N 22°03' E 113°52'0 0.0
2013-Jul-13 02:32N 22°03' E 113°52'0 0.0
2013-Jul-13 01:08N 22°03' E 113°52'0 0.1
2013-Jul-13 00:20N 22°03' E 113°52'0 0.1
2013-Jul-12 23:14N 22°03' E 113°52'0 0.0
2013-Jul-12 22:26N 22°03' E 113°52'0 0.0
2013-Jul-12 19:32N 22°03' E 113°52'0 0.0
2013-Jul-12 18:32N 22°03' E 113°52'0 0.0
2013-Jul-12 16:14N 22°03' E 113°52'0 0.0
2013-Jul-12 15:26N 22°03' E 113°52'0 0.0
2013-Jul-12 14:32N 22°03' E 113°52'0 0.0
2013-Jul-12 13:14N 22°03' E 113°52'0 0.1
2013-Jul-12 12:14N 22°03' E 113°52'0 0.0
2013-Jul-12 11:08N 22°03' E 113°52'0 0.0
2013-Jul-12 10:26N 22°03' E 113°52'0 0.0
2013-Jul-12 09:20N 22°03' E 113°52'1 0.2
2013-Jul-12 03:32N 22°04' E 113°52'6 6.2
2013-Jul-12 02:33N 22°07' E 113°46'1 0.6
2013-Jul-12 01:17N 22°08' E 113°46'0 0.2
2013-Jul-12 00:29N 22°08' E 113°46'0 0.0
2013-Jul-11 20:29N 22°08' E 113°46'0 0.0
2013-Jul-11 19:29N 22°08' E 113°46'0 0.1
2013-Jul-11 18:29N 22°08' E 113°46'0 0.1
2013-Jul-11 17:23N 22°08' E 113°46'0 0.1
2013-Jul-11 16:23N 22°08' E 113°46'0 0.1
2013-Jul-11 15:17N 22°08' E 113°46'0 0.1
2013-Jul-11 14:17N 22°08' E 113°46'0 0.0
2013-Jul-11 13:29N 22°08' E 113°46'0 0.2
2013-Jul-11 12:23N 22°08' E 113°46'0 0.0
2013-Jul-11 11:29N 22°08' E 113°46'0 0.1
2013-Jul-11 10:23N 22°08' E 113°46'0 0.1
2013-Jul-11 09:17N 22°08' E 113°46'0 0.0
2013-Jul-11 08:29N 22°08' E 113°46'0 0.0
2013-Jul-11 07:29N 22°08' E 113°46'0 0.0
2013-Jul-11 06:29N 22°08' E 113°46'0 0.0
2013-Jul-11 05:29N 22°08' E 113°46'0 0.1
2013-Jul-11 04:23N 22°08' E 113°46'0 0.0
2013-Jul-11 03:29N 22°08' E 113°46'0 0.2
2013-Jul-11 02:29N 22°08' E 113°46'0 0.1
2013-Jul-11 01:23N 22°08' E 113°46'0 0.0
2013-Jul-11 00:29N 22°08' E 113°46'0 0.1
2013-Jul-10 23:29N 22°08' E 113°46'0 0.2
2013-Jul-10 22:29N 22°08' E 113°46'0 0.1
2013-Jul-10 21:23N 22°08' E 113°46'0 0.0
2013-Jul-10 20:29N 22°08' E 113°46'0 0.0
2013-Jul-10 19:11N 22°08' E 113°46'0 0.0
2013-Jul-10 18:23N 22°08' E 113°46'0 0.1
2013-Jul-10 17:29N 22°08' E 113°46'0 0.1
2013-Jul-10 16:23N 22°08' E 113°46'0 0.0
2013-Jul-10 15:23N 22°08' E 113°46'0 0.1
2013-Jul-10 14:17N 22°08' E 113°46'0 0.1
2013-Jul-10 13:23N 22°08' E 113°46'0 0.0
2013-Jul-10 12:29N 22°08' E 113°46'0 0.2
2013-Jul-10 11:23N 22°08' E 113°46'0 0.0
2013-Jul-10 10:29N 22°08' E 113°46'0 0.1
2013-Jul-10 09:29N 22°08' E 113°46'0 0.1
2013-Jul-10 08:29N 22°08' E 113°46'0 0.0
2013-Jul-10 07:23N 22°08' E 113°46'0 0.0
2013-Jul-10 06:33N 22°08' E 113°46'2 1.6
2013-Jul-10 05:33N 22°09' E 113°47'13 6.3
2013-Jul-10 03:33N 22°21' E 113°47'8 8.3
2013-Jul-10 02:33N 22°29' E 113°45'6 6.1
2013-Jul-10 01:30N 22°35' E 113°43'9 8.6
2013-Jul-10 00:24N 22°44' E 113°39'7 7.7
2013-Jul-09 23:33N 22°50' E 113°35'9 9.4
2013-Jul-09 22:33N 22°59' E 113°32'1 1.1
2013-Jul-09 21:28N 22°60' E 113°32'0 0.0
2013-Jul-09 20:28N 22°60' E 113°32'0 0.0
2013-Jul-09 19:28N 22°60' E 113°32'0 0.0
2013-Jul-09 18:16N 22°60' E 113°32'0 0.0
2013-Jul-09 17:28N 22°60' E 113°32'0 0.0
2013-Jul-09 16:28N 22°60' E 113°32'0 0.0
2013-Jul-09 15:28N 22°60' E 113°32'0 0.0
2013-Jul-09 14:10N 22°60' E 113°32'0 0.0
2013-Jul-09 13:22N 22°60' E 113°32'0 0.0
2013-Jul-09 12:04N 22°60' E 113°32'0 0.0
2013-Jul-09 11:28N 22°60' E 113°32'0 0.0
2013-Jul-09 10:28N 22°60' E 113°32'0 0.0
2013-Jul-09 09:10N 22°60' E 113°32'0 0.1
2013-Jul-09 08:22N 22°60' E 113°32'  

Dump ship's entire track history

sailing weather and tide predictions

Ocean Preface — VRUL7 — position and weather